createdAt,value
2023-01-29T00:00:13.706Z,15.22
2023-01-29T00:01:35.230Z,13.66
2023-01-29T00:02:56.685Z,16.91
2023-01-29T00:04:17.594Z,14.78
2023-01-29T00:05:38.750Z,14.04
2023-01-29T00:07:00.316Z,13.91
2023-01-29T00:08:21.594Z,15.31
2023-01-29T00:09:43.035Z,13.62
2023-01-29T00:11:04.758Z,15.34
2023-01-29T00:12:25.988Z,14.98
2023-01-29T00:13:47.365Z,15.51
2023-01-29T00:15:08.745Z,14.89
2023-01-29T00:16:30.713Z,17.06
2023-01-29T00:17:52.276Z,17.27
2023-01-29T00:19:13.673Z,17.85
2023-01-29T00:20:34.848Z,15.69
2023-01-29T00:21:56.001Z,16.30
2023-01-29T00:23:17.191Z,14.37
2023-01-29T00:24:38.641Z,16.40
2023-01-29T00:25:59.907Z,16.43
2023-01-29T00:27:21.201Z,16.68
2023-01-29T00:28:42.822Z,15.82
2023-01-29T00:30:05.186Z,16.92
2023-01-29T00:31:26.607Z,13.64
2023-01-29T00:32:48.242Z,15.38
2023-01-29T00:34:09.310Z,16.66
2023-01-29T00:35:30.486Z,15.22
2023-01-29T00:36:52.239Z,17.89
2023-01-29T00:38:14.068Z,19.02
2023-01-29T00:39:47.124Z,18.12
2023-01-29T00:42:26.395Z,16.02
2023-01-29T00:43:47.953Z,22.14
2023-01-29T00:45:10.485Z,19.57
2023-01-29T00:46:32.090Z,20.04
2023-01-29T00:47:53.394Z,21.34
2023-01-29T00:49:14.879Z,18.68
2023-01-29T00:50:36.523Z,17.08
2023-01-29T00:51:57.584Z,19.08
2023-01-29T00:53:18.842Z,16.16
2023-01-29T00:54:40.303Z,17.02
2023-01-29T00:56:02.055Z,17.46
2023-01-29T00:57:24.556Z,17.03
2023-01-29T00:58:45.608Z,13.56
2023-01-29T01:00:10.090Z,17.82
2023-01-29T01:01:31.373Z,14.33
2023-01-29T01:02:52.420Z,16.16
2023-01-29T01:04:14.023Z,16.78
2023-01-29T01:05:35.027Z,14.85
2023-01-29T01:06:56.718Z,15.10
2023-01-29T01:08:17.871Z,16.08
2023-01-29T01:09:38.992Z,16.38
2023-01-29T01:11:02.676Z,15.52
2023-01-29T01:13:45.143Z,15.74
2023-01-29T01:15:07.161Z,14.22
2023-01-29T01:16:28.407Z,15.08
2023-01-29T01:17:55.004Z,14.99
2023-01-29T01:19:16.323Z,13.69
2023-01-29T01:20:37.895Z,15.03
2023-01-29T01:21:59.224Z,14.41
2023-01-29T01:23:21.936Z,16.28
2023-01-29T01:24:43.281Z,15.03
2023-01-29T01:26:09.744Z,16.83
2023-01-29T01:27:31.185Z,15.61
2023-01-29T01:28:52.310Z,15.78
2023-01-29T01:30:15.111Z,15.41
2023-01-29T01:31:36.388Z,14.08
2023-01-29T01:32:57.719Z,14.64
2023-01-29T01:34:19.424Z,15.97
2023-01-29T01:35:40.861Z,16.08
2023-01-29T01:37:02.487Z,16.86
2023-01-29T01:38:24.273Z,18.54
2023-01-29T01:39:45.785Z,17.06
2023-01-29T01:41:07.016Z,17.66
2023-01-29T01:42:28.658Z,18.28
2023-01-29T01:43:57.495Z,18.11
2023-01-29T01:45:28.362Z,15.02
2023-01-29T01:46:50.075Z,13.58
2023-01-29T01:48:16.627Z,13.72
2023-01-29T01:49:37.657Z,14.69
2023-01-29T01:51:01.673Z,13.83
2023-01-29T01:53:46.430Z,16.14
2023-01-29T01:55:08.594Z,15.85
2023-01-29T01:56:32.442Z,16.00
2023-01-29T01:57:56.903Z,15.96
2023-01-29T01:59:18.007Z,15.57
2023-01-29T02:00:39.474Z,16.10
2023-01-29T02:02:00.830Z,14.77
2023-01-29T02:03:22.298Z,16.48
2023-01-29T02:04:45.835Z,16.48
2023-01-29T02:06:08.096Z,17.48
2023-01-29T02:07:29.673Z,18.33
2023-01-29T02:08:54.423Z,16.29
2023-01-29T02:10:16.455Z,13.71
2023-01-29T02:11:38.223Z,14.04
2023-01-29T02:12:59.580Z,14.43
2023-01-29T02:14:21.652Z,12.94
2023-01-29T02:15:42.924Z,14.50
2023-01-29T02:17:05.641Z,15.42
2023-01-29T02:18:26.767Z,17.07
2023-01-29T02:20:09.381Z,15.57
2023-01-29T02:23:03.642Z,12.13
2023-01-29T02:26:16.155Z,16.85
2023-01-29T02:29:11.306Z,13.94
2023-01-29T02:30:39.359Z,16.69
2023-01-29T02:32:21.971Z,15.80
2023-01-29T02:33:59.052Z,12.40
2023-01-29T02:36:46.273Z,11.46
2023-01-29T02:38:26.441Z,13.91
2023-01-29T02:41:30.652Z,15.10
2023-01-29T02:44:31.916Z,16.80
2023-01-29T02:46:13.779Z,17.00
2023-01-29T02:47:44.956Z,15.86
2023-01-29T02:49:28.617Z,18.17
2023-01-29T02:52:11.394Z,15.49
2023-01-29T02:53:41.927Z,15.73
2023-01-29T02:55:09.709Z,15.66
2023-01-29T02:56:40.865Z,15.59
2023-01-29T02:58:05.984Z,13.85
2023-01-29T03:00:45.160Z,11.67
2023-01-29T03:02:12.245Z,14.68
2023-01-29T03:03:36.674Z,16.44
2023-01-29T03:05:00.170Z,13.36
2023-01-29T03:07:35.661Z,10.89
2023-01-29T03:08:58.980Z,13.15
2023-01-29T03:10:24.082Z,14.12
2023-01-29T03:11:48.530Z,15.69
2023-01-29T03:13:16.336Z,16.40
2023-01-29T03:14:37.617Z,15.68
2023-01-29T03:16:05.653Z,15.64
2023-01-29T03:17:29.105Z,16.24
2023-01-29T03:20:12.440Z,17.28
2023-01-29T03:21:35.840Z,14.94
2023-01-29T03:24:17.918Z,17.03
2023-01-29T03:25:39.337Z,13.96
2023-01-29T03:27:02.283Z,15.96
2023-01-29T03:28:23.270Z,13.48
2023-01-29T03:29:44.275Z,15.42
2023-01-29T03:31:07.228Z,17.70
2023-01-29T03:32:28.624Z,17.29
2023-01-29T03:33:53.415Z,14.88
2023-01-29T03:35:15.506Z,14.45
2023-01-29T03:36:45.513Z,14.77
2023-01-29T03:38:08.268Z,14.55
2023-01-29T03:39:29.303Z,16.29
2023-01-29T03:41:11.698Z,13.50
2023-01-29T03:42:45.713Z,14.64
2023-01-29T03:44:15.079Z,14.84
2023-01-29T03:45:59.360Z,13.96
2023-01-29T03:47:46.892Z,17.49
2023-01-29T03:50:56.680Z,14.46
2023-01-29T03:54:05.654Z,14.53
2023-01-29T03:56:01.314Z,12.54
2023-01-29T03:57:26.448Z,12.64
2023-01-29T03:59:00.140Z,13.37
2023-01-29T04:00:24.889Z,13.01
2023-01-29T04:01:54.285Z,13.28
2023-01-29T04:03:18.784Z,14.26
2023-01-29T04:04:41.416Z,13.17
2023-01-29T04:06:13.417Z,14.56
2023-01-29T04:07:34.382Z,15.40
2023-01-29T04:09:15.591Z,17.97
2023-01-29T04:10:37.860Z,17.72
2023-01-29T04:12:04.910Z,16.38
2023-01-29T04:13:25.981Z,15.63
2023-01-29T04:14:47.300Z,13.81
2023-01-29T04:16:11.947Z,12.39
2023-01-29T04:17:39.967Z,13.32
2023-01-29T04:19:00.972Z,10.53
2023-01-29T04:20:22.721Z,23.79
2023-01-29T04:21:43.819Z,12.42
2023-01-29T04:23:06.375Z,13.97
2023-01-29T04:24:28.110Z,13.12
2023-01-29T04:27:24.592Z,13.99
2023-01-29T04:28:55.649Z,14.22
2023-01-29T04:30:37.203Z,16.38
2023-01-29T04:32:07.779Z,14.72
2023-01-29T04:33:51.264Z,14.93
2023-01-29T04:35:33.880Z,15.72
2023-01-29T04:38:52.419Z,14.81
2023-01-29T04:40:26.715Z,16.48
2023-01-29T04:41:54.794Z,13.96
2023-01-29T04:43:25.829Z,12.26
2023-01-29T04:46:07.537Z,11.91
2023-01-29T04:47:38.490Z,14.56
2023-01-29T04:49:20.955Z,14.24
2023-01-29T04:52:20.150Z,9.56
2023-01-29T04:55:01.706Z,13.54
2023-01-29T04:56:27.208Z,14.51
2023-01-29T04:58:01.371Z,14.32
2023-01-29T05:00:38.079Z,15.24
2023-01-29T05:02:00.396Z,13.87
2023-01-29T05:03:23.029Z,16.06
2023-01-29T05:04:44.179Z,10.57
2023-01-29T05:06:06.547Z,14.69
2023-01-29T05:07:27.632Z,16.91
2023-01-29T05:08:48.892Z,16.83
2023-01-29T05:10:11.500Z,12.91
2023-01-29T05:11:32.804Z,14.30
2023-01-29T05:12:57.916Z,12.07
2023-01-29T05:14:20.355Z,13.76
2023-01-29T05:16:01.737Z,14.14
2023-01-29T05:17:23.098Z,16.08
2023-01-29T05:18:44.663Z,12.06
2023-01-29T05:20:07.392Z,14.97
2023-01-29T05:21:28.418Z,13.44
2023-01-29T05:22:49.478Z,13.98
2023-01-29T05:25:30.348Z,8.44
2023-01-29T05:26:53.114Z,12.46
2023-01-29T05:28:14.469Z,12.70
2023-01-29T05:29:35.944Z,13.91
2023-01-29T05:30:57.791Z,13.61
2023-01-29T05:32:19.155Z,14.34
2023-01-29T05:33:40.453Z,14.89
2023-01-29T05:35:01.699Z,12.18
2023-01-29T05:36:23.622Z,11.03
2023-01-29T05:37:45.139Z,9.26
2023-01-29T05:39:06.897Z,9.78
2023-01-29T05:40:28.383Z,9.32
2023-01-29T05:41:49.572Z,8.92
2023-01-29T05:44:30.862Z,8.40
2023-01-29T05:45:59.472Z,7.70
2023-01-29T05:47:20.671Z,7.99
2023-01-29T05:48:41.606Z,7.32
2023-01-29T05:50:03.361Z,7.76
2023-01-29T05:51:24.859Z,8.47
2023-01-29T05:52:46.089Z,8.38
2023-01-29T05:54:07.386Z,9.86
2023-01-29T05:55:30.037Z,7.43
2023-01-29T05:56:51.988Z,8.29
2023-01-29T05:58:13.287Z,8.78
2023-01-29T05:59:34.512Z,7.44
2023-01-29T06:00:55.719Z,7.01
2023-01-29T06:02:16.992Z,8.13
2023-01-29T06:03:38.429Z,7.43
2023-01-29T06:04:59.382Z,7.82
2023-01-29T06:06:20.835Z,7.98
2023-01-29T06:07:43.745Z,9.63
2023-01-29T06:09:05.174Z,11.77
2023-01-29T06:10:26.516Z,8.07
2023-01-29T06:11:47.551Z,9.04
2023-01-29T06:13:08.801Z,8.17
2023-01-29T06:14:29.880Z,9.17
2023-01-29T06:15:50.956Z,7.82
2023-01-29T06:17:12.612Z,7.61
2023-01-29T06:18:35.333Z,10.32
2023-01-29T06:19:56.676Z,8.32
2023-01-29T06:21:19.947Z,9.46
2023-01-29T06:24:01.739Z,9.28
2023-01-29T06:25:23.172Z,7.48
2023-01-29T06:26:44.244Z,7.22
2023-01-29T06:28:05.545Z,7.78
2023-01-29T06:29:26.918Z,6.47
2023-01-29T06:30:48.270Z,7.54
2023-01-29T06:32:09.817Z,7.53
2023-01-29T06:33:31.096Z,8.25
2023-01-29T06:34:52.726Z,8.14
2023-01-29T06:36:14.666Z,8.23
2023-01-29T06:37:35.876Z,9.81
2023-01-29T06:38:57.384Z,7.67
2023-01-29T06:40:20.361Z,8.02
2023-01-29T06:41:42.904Z,6.78
2023-01-29T06:43:04.241Z,6.08
2023-01-29T06:44:25.697Z,6.44
2023-01-29T06:45:51.899Z,7.68
2023-01-29T06:47:13.174Z,6.76
2023-01-29T06:48:34.645Z,8.34
2023-01-29T06:49:56.173Z,7.83
2023-01-29T06:51:17.596Z,7.48
2023-01-29T06:52:38.849Z,7.76
2023-01-29T06:54:00.104Z,8.42
2023-01-29T06:55:21.525Z,7.40
2023-01-29T06:56:43.164Z,6.69
2023-01-29T06:59:41.949Z,8.84
2023-01-29T07:01:06.109Z,8.63
2023-01-29T07:02:27.654Z,9.20
2023-01-29T07:03:49.595Z,6.68
2023-01-29T07:05:11.181Z,6.93
2023-01-29T07:06:33.236Z,6.59
2023-01-29T07:07:54.273Z,6.23
2023-01-29T07:09:15.753Z,7.39
2023-01-29T07:10:37.011Z,7.80
2023-01-29T07:11:59.388Z,6.88
2023-01-29T07:13:20.456Z,6.24
2023-01-29T07:14:41.486Z,5.98
2023-01-29T07:16:03.721Z,7.01
2023-01-29T07:17:25.264Z,6.85
2023-01-29T07:18:47.100Z,7.62
2023-01-29T07:20:09.426Z,8.11
2023-01-29T07:21:30.487Z,7.11
2023-01-29T07:22:51.556Z,7.27
2023-01-29T07:24:12.686Z,7.16
2023-01-29T07:25:34.125Z,6.56
2023-01-29T07:26:55.600Z,6.64
2023-01-29T07:28:17.741Z,6.81
2023-01-29T07:29:38.812Z,5.97
2023-01-29T07:30:59.945Z,6.08
2023-01-29T07:32:21.046Z,5.02
2023-01-29T07:33:43.165Z,5.18
2023-01-29T07:35:04.765Z,7.01
2023-01-29T07:36:26.650Z,5.28
2023-01-29T07:37:50.785Z,6.29
2023-01-29T07:39:12.182Z,5.14
2023-01-29T07:40:33.573Z,3.93
2023-01-29T07:41:54.686Z,5.67
2023-01-29T07:43:16.251Z,5.51
2023-01-29T07:44:37.531Z,5.68
2023-01-29T07:46:02.413Z,4.82
2023-01-29T07:47:23.536Z,4.34
2023-01-29T07:48:44.535Z,5.88
2023-01-29T07:50:06.354Z,4.28
2023-01-29T07:51:27.859Z,3.91
2023-01-29T07:52:49.514Z,4.68
2023-01-29T07:54:10.817Z,4.47
2023-01-29T07:55:32.305Z,5.04
2023-01-29T07:56:53.801Z,5.04
2023-01-29T07:58:15.167Z,4.22
2023-01-29T07:59:36.831Z,4.41
2023-01-29T08:02:11.816Z,3.81
2023-01-29T08:03:33.171Z,3.65
2023-01-29T08:04:54.445Z,3.45
2023-01-29T08:06:16.022Z,3.84
2023-01-29T08:07:37.466Z,5.19
2023-01-29T08:08:58.871Z,5.37
2023-01-29T08:10:20.808Z,4.81
2023-01-29T08:11:42.003Z,4.69
2023-01-29T08:13:03.429Z,5.13
2023-01-29T08:14:24.629Z,5.41
2023-01-29T08:15:46.495Z,5.36
2023-01-29T08:17:07.631Z,6.08
2023-01-29T08:18:29.238Z,5.26
2023-01-29T08:19:50.279Z,5.07
2023-01-29T08:21:13.138Z,5.80
2023-01-29T08:22:34.870Z,5.71
2023-01-29T08:23:56.293Z,6.76
2023-01-29T08:25:17.814Z,6.77
2023-01-29T08:26:39.708Z,8.05
2023-01-29T08:28:01.025Z,6.26
2023-01-29T08:29:22.291Z,6.63
2023-01-29T08:30:43.947Z,6.97
2023-01-29T08:32:05.669Z,7.92
2023-01-29T08:33:37.188Z,5.68
2023-01-29T08:36:13.057Z,6.91
2023-01-29T08:37:34.200Z,6.92
2023-01-29T08:38:55.451Z,6.51
2023-01-29T08:40:18.088Z,5.44
2023-01-29T08:41:39.436Z,5.49
2023-01-29T08:43:02.977Z,5.66
2023-01-29T08:44:25.313Z,5.64
2023-01-29T08:45:46.334Z,4.97
2023-01-29T08:47:08.044Z,5.36
2023-01-29T08:48:30.319Z,4.32
2023-01-29T08:49:53.740Z,3.62
2023-01-29T08:51:15.151Z,5.57
2023-01-29T08:52:36.521Z,4.32
2023-01-29T08:53:57.541Z,4.11
2023-01-29T08:55:19.096Z,4.83
2023-01-29T08:56:40.670Z,4.52
2023-01-29T08:58:03.597Z,4.14
2023-01-29T08:59:24.905Z,4.61
2023-01-29T09:00:46.599Z,4.74
2023-01-29T09:02:09.980Z,4.81
2023-01-29T09:03:31.210Z,7.04
2023-01-29T09:04:52.575Z,6.38
2023-01-29T09:06:14.326Z,7.02
2023-01-29T09:07:35.338Z,9.13
2023-01-29T09:08:56.330Z,7.33
2023-01-29T09:10:19.209Z,8.09
2023-01-29T09:11:40.300Z,6.87
2023-01-29T09:13:01.751Z,9.33
2023-01-29T09:14:23.489Z,6.02
2023-01-29T09:16:10.316Z,5.58
2023-01-29T09:17:34.271Z,6.57
2023-01-29T09:18:56.157Z,4.75
2023-01-29T09:20:18.072Z,5.13
2023-01-29T09:21:39.463Z,4.25
2023-01-29T09:23:07.772Z,3.79
2023-01-29T09:24:31.568Z,4.68
2023-01-29T09:25:52.668Z,4.48
2023-01-29T09:27:14.585Z,4.43
2023-01-29T09:28:35.942Z,4.28
2023-01-29T09:29:57.239Z,3.72
2023-01-29T09:31:18.510Z,5.43
2023-01-29T09:32:55.508Z,4.45
2023-01-29T09:34:03.331Z,5.23
2023-01-29T09:35:24.451Z,4.63
2023-01-29T09:36:47.677Z,6.41
2023-01-29T09:38:09.643Z,4.48
2023-01-29T09:39:31.039Z,5.87
2023-01-29T09:41:02.049Z,5.63
2023-01-29T09:42:41.424Z,4.28
2023-01-29T09:44:05.589Z,4.92
2023-01-29T09:45:27.633Z,4.37
2023-01-29T09:46:49.076Z,5.36
2023-01-29T09:48:10.800Z,4.65
2023-01-29T09:49:34.768Z,5.61
2023-01-29T09:50:57.440Z,6.46
2023-01-29T09:52:29.847Z,6.70
2023-01-29T09:53:54.252Z,6.82
2023-01-29T09:55:22.028Z,6.06
2023-01-29T09:56:43.131Z,6.23
2023-01-29T09:58:11.840Z,8.44
2023-01-29T09:59:32.905Z,8.17
2023-01-29T10:01:12.902Z,7.84
2023-01-29T10:04:24.766Z,8.58
2023-01-29T10:07:43.404Z,10.73
2023-01-29T10:09:32.699Z,11.17
2023-01-29T10:11:00.945Z,15.62
2023-01-29T10:12:53.164Z,18.22
2023-01-29T10:14:20.815Z,10.38
2023-01-29T10:15:48.773Z,10.97
2023-01-29T10:19:04.781Z,9.22
2023-01-29T10:20:46.089Z,12.39
2023-01-29T10:23:34.180Z,11.52
2023-01-29T10:24:59.973Z,10.94
2023-01-29T10:26:23.786Z,12.38
2023-01-29T10:29:01.604Z,19.77
2023-01-29T10:30:40.250Z,15.26
2023-01-29T10:32:01.566Z,15.93
2023-01-29T10:34:48.274Z,14.27
2023-01-29T10:36:16.639Z,13.04
2023-01-29T10:37:41.839Z,11.26
2023-01-29T10:39:03.165Z,12.04
2023-01-29T10:40:40.092Z,12.84
2023-01-29T10:42:17.052Z,13.03
2023-01-29T10:43:56.896Z,13.49
2023-01-29T10:45:21.644Z,12.03
2023-01-29T10:46:46.592Z,13.84
2023-01-29T10:48:23.638Z,13.87
2023-01-29T10:50:12.909Z,12.38
2023-01-29T10:51:49.995Z,10.86
2023-01-29T10:53:32.930Z,12.07
2023-01-29T10:55:09.870Z,10.70
2023-01-29T10:56:59.536Z,10.19
2023-01-29T10:58:41.209Z,11.84
2023-01-29T11:00:08.987Z,11.99
2023-01-29T11:01:30.883Z,12.10
2023-01-29T11:02:52.175Z,10.73
2023-01-29T11:04:13.730Z,10.62
2023-01-29T11:07:17.711Z,13.29
2023-01-29T11:10:17.496Z,10.07
2023-01-29T11:11:42.116Z,11.76
2023-01-29T11:13:05.126Z,13.28
2023-01-29T11:14:28.154Z,13.34
2023-01-29T11:17:17.391Z,14.75
2023-01-29T11:18:59.557Z,15.59
2023-01-29T11:21:54.532Z,14.22
2023-01-29T11:23:27.694Z,12.03
2023-01-29T11:25:13.156Z,12.95
2023-01-29T11:26:37.305Z,12.07
2023-01-29T11:27:59.539Z,12.21
2023-01-29T11:29:29.389Z,12.89
2023-01-29T11:30:50.605Z,11.05
2023-01-29T11:33:25.493Z,13.74
2023-01-29T11:35:09.879Z,13.07
2023-01-29T11:36:37.084Z,12.01
2023-01-29T11:38:02.221Z,13.11
2023-01-29T11:39:23.896Z,12.30
2023-01-29T11:40:45.013Z,12.39
2023-01-29T11:42:09.347Z,12.29
2023-01-29T11:43:30.813Z,14.31
2023-01-29T11:44:51.877Z,13.14
2023-01-29T11:46:14.237Z,12.92
2023-01-29T11:47:35.453Z,15.42
2023-01-29T11:48:59.369Z,14.72
2023-01-29T11:50:22.655Z,13.26
2023-01-29T11:51:44.156Z,14.04
2023-01-29T11:53:05.552Z,17.13
2023-01-29T11:54:28.946Z,16.78
2023-01-29T11:55:51.163Z,15.28
2023-01-29T11:57:30.062Z,15.49
2023-01-29T11:58:51.189Z,17.04
2023-01-29T12:00:26.892Z,15.74
2023-01-29T12:01:47.941Z,23.21
2023-01-29T12:03:17.821Z,17.14
2023-01-29T12:04:39.092Z,15.42
2023-01-29T12:06:07.697Z,15.47
2023-01-29T12:07:28.997Z,14.41
2023-01-29T12:08:57.576Z,13.08
2023-01-29T12:11:53.515Z,12.84
2023-01-29T12:13:26.247Z,17.07
2023-01-29T12:14:47.575Z,13.23
2023-01-29T12:16:39.067Z,15.31
2023-01-29T12:18:23.860Z,15.49
2023-01-29T12:21:01.724Z,16.13
2023-01-29T12:22:48.979Z,16.59
2023-01-29T12:24:30.632Z,15.19
2023-01-29T12:26:00.792Z,16.79
2023-01-29T12:27:28.551Z,14.17
2023-01-29T12:28:59.498Z,14.05
2023-01-29T12:31:59.464Z,12.74
2023-01-29T12:33:30.408Z,14.99
2023-01-29T12:34:56.865Z,17.14
2023-01-29T12:37:50.353Z,16.74
2023-01-29T12:39:13.246Z,14.13
2023-01-29T12:40:43.505Z,16.46
2023-01-29T12:42:09.805Z,15.12
2023-01-29T12:43:42.574Z,16.41
2023-01-29T12:45:06.928Z,16.73
2023-01-29T12:46:30.973Z,16.67
2023-01-29T12:47:54.870Z,15.57
2023-01-29T12:49:18.194Z,16.07
2023-01-29T12:50:39.686Z,14.90
2023-01-29T12:52:16.342Z,11.81
2023-01-29T12:53:46.605Z,12.97
2023-01-29T12:57:46.328Z,12.81
2023-01-29T13:00:31.899Z,14.97
2023-01-29T13:03:20.670Z,16.04
2023-01-29T13:04:44.863Z,15.25
2023-01-29T13:06:08.707Z,15.08
2023-01-29T13:07:37.671Z,16.28
2023-01-29T13:09:02.716Z,17.36
2023-01-29T13:10:27.663Z,13.96
2023-01-29T13:12:06.779Z,14.44
2023-01-29T13:13:34.270Z,14.35
2023-01-29T13:14:59.834Z,12.96
2023-01-29T13:16:23.473Z,15.44
2023-01-29T13:19:12.376Z,15.09
2023-01-29T13:20:33.863Z,15.01
2023-01-29T13:21:56.602Z,15.43
2023-01-29T13:24:47.884Z,15.49
2023-01-29T13:26:05.848Z,12.95
2023-01-29T13:27:31.165Z,15.64
2023-01-29T13:28:52.468Z,13.97
2023-01-29T13:30:30.628Z,16.91
2023-01-29T13:31:52.101Z,15.75
2023-01-29T13:33:17.684Z,14.96
2023-01-29T13:34:45.015Z,14.79
2023-01-29T13:36:08.578Z,15.77
2023-01-29T13:37:33.719Z,17.58
2023-01-29T13:38:57.714Z,16.85
2023-01-29T13:41:39.098Z,15.06
2023-01-29T13:43:00.724Z,15.40
2023-01-29T13:44:35.392Z,14.69
2023-01-29T13:45:56.877Z,18.27
2023-01-29T13:47:34.995Z,14.68
2023-01-29T13:48:56.442Z,15.78
2023-01-29T13:50:38.971Z,16.67
2023-01-29T13:52:14.507Z,16.73
2023-01-29T13:53:37.455Z,14.94
2023-01-29T13:55:10.999Z,18.97
2023-01-29T13:57:48.634Z,13.43
2023-01-29T14:00:46.778Z,17.18
2023-01-29T14:02:25.283Z,15.69
2023-01-29T14:04:04.306Z,15.77
2023-01-29T14:05:33.421Z,17.97
2023-01-29T14:06:55.971Z,19.91
2023-01-29T14:08:38.136Z,15.99
2023-01-29T14:10:02.296Z,15.39
2023-01-29T14:11:34.739Z,14.85
2023-01-29T14:13:05.373Z,15.69
2023-01-29T14:14:49.982Z,15.04
2023-01-29T14:16:15.773Z,16.34
2023-01-29T14:17:38.255Z,15.33
2023-01-29T14:19:00.182Z,15.95
2023-01-29T14:20:32.380Z,15.01
2023-01-29T14:21:48.826Z,13.66
2023-01-29T14:23:22.807Z,15.99
2023-01-29T14:24:44.491Z,15.75
2023-01-29T14:26:20.931Z,16.69
2023-01-29T14:27:47.231Z,15.14
2023-01-29T14:29:29.077Z,16.08
2023-01-29T14:30:49.078Z,16.98
2023-01-29T14:32:20.682Z,15.19
2023-01-29T14:33:44.430Z,16.38
2023-01-29T14:35:25.605Z,18.79
2023-01-29T14:36:47.221Z,15.83
2023-01-29T14:38:08.574Z,15.18
2023-01-29T14:39:34.928Z,17.01
2023-01-29T14:42:59.597Z,16.67
2023-01-29T14:44:47.543Z,15.92
2023-01-29T14:47:50.467Z,13.21
2023-01-29T14:49:11.784Z,16.86
2023-01-29T14:50:37.151Z,15.74
2023-01-29T14:51:58.426Z,16.05
2023-01-29T14:53:43.136Z,15.28
2023-01-29T14:55:10.537Z,15.67
2023-01-29T14:56:34.462Z,17.55
2023-01-29T14:57:55.770Z,15.88
2023-01-29T14:59:23.289Z,16.81
2023-01-29T15:00:45.428Z,18.20
2023-01-29T15:04:59.569Z,17.42
2023-01-29T15:06:39.960Z,15.36
2023-01-29T15:08:06.262Z,17.02
2023-01-29T15:09:42.860Z,17.50
2023-01-29T15:11:10.627Z,14.63
2023-01-29T15:12:35.790Z,15.12
2023-01-29T15:14:06.568Z,14.50
2023-01-29T15:15:46.977Z,14.81
2023-01-29T15:17:17.396Z,15.62
2023-01-29T15:18:42.043Z,16.42
2023-01-29T15:20:06.142Z,15.02
2023-01-29T15:21:27.298Z,14.60
2023-01-29T15:22:48.596Z,15.13
2023-01-29T15:24:11.970Z,14.97
2023-01-29T15:26:49.022Z,15.82
2023-01-29T15:28:10.503Z,15.25
2023-01-29T15:29:32.243Z,15.62
2023-01-29T15:30:54.782Z,14.28
2023-01-29T15:33:40.463Z,16.42
2023-01-29T15:46:55.935Z,14.83
2023-01-29T15:49:33.180Z,16.81
2023-01-29T15:50:56.247Z,15.46
2023-01-29T15:53:44.216Z,17.02
2023-01-29T15:55:06.254Z,16.48
2023-01-29T15:56:32.465Z,17.01
2023-01-29T15:57:53.661Z,17.51
2023-01-29T15:59:19.280Z,17.57
2023-01-29T16:00:41.122Z,17.71
2023-01-29T16:02:37.454Z,16.02
2023-01-29T16:03:59.573Z,17.14
2023-01-29T16:05:23.374Z,18.68
2023-01-29T16:06:45.785Z,17.33
2023-01-29T16:08:10.541Z,17.07
2023-01-29T16:09:31.949Z,16.26
2023-01-29T16:10:55.629Z,16.36
2023-01-29T16:12:16.878Z,18.78
2023-01-29T16:14:50.588Z,20.30
2023-01-29T16:16:21.965Z,17.46
2023-01-29T16:17:43.405Z,17.84
2023-01-29T16:20:43.878Z,17.70
2023-01-29T16:24:40.450Z,18.81
2023-01-29T16:26:06.643Z,19.06
2023-01-29T16:27:28.125Z,16.71
2023-01-29T16:28:49.175Z,16.63
2023-01-29T16:31:28.590Z,13.74
2023-01-29T16:32:49.855Z,13.08
2023-01-29T16:34:17.268Z,16.06
2023-01-29T16:35:38.301Z,15.93
2023-01-29T16:37:00.815Z,15.79
2023-01-29T16:39:39.109Z,17.24
2023-01-29T16:41:22.190Z,16.24
2023-01-29T16:42:45.857Z,13.17
2023-01-29T16:44:17.204Z,16.01
2023-01-29T16:45:38.544Z,15.93
2023-01-29T16:47:11.824Z,15.11
2023-01-29T16:48:33.875Z,15.93
2023-01-29T16:49:56.498Z,17.05
2023-01-29T16:54:13.475Z,15.22
2023-01-29T16:55:38.772Z,15.81
2023-01-29T16:56:59.944Z,16.44
2023-01-29T16:58:23.913Z,14.52
2023-01-29T16:59:45.283Z,15.08
2023-01-29T17:01:08.484Z,16.34
2023-01-29T17:02:30.937Z,16.93
2023-01-29T17:05:24.394Z,16.99
2023-01-29T17:06:48.281Z,15.26
2023-01-29T17:08:19.103Z,13.64
2023-01-29T17:09:41.739Z,15.97
2023-01-29T17:11:03.621Z,18.12
2023-01-29T17:12:25.196Z,15.89
2023-01-29T17:13:46.600Z,18.02
2023-01-29T17:15:28.223Z,16.32
2023-01-29T17:16:52.135Z,16.01
2023-01-29T17:18:20.713Z,17.41
2023-01-29T17:19:41.926Z,17.37
2023-01-29T17:21:03.148Z,16.16
2023-01-29T17:22:24.552Z,15.32
2023-01-29T17:23:46.162Z,16.59
2023-01-29T17:25:09.201Z,16.80
2023-01-29T17:26:30.455Z,17.88
2023-01-29T17:27:51.831Z,17.84
2023-01-29T17:29:14.048Z,17.34
2023-01-29T17:30:35.356Z,17.79
2023-01-29T17:31:56.647Z,17.63
2023-01-29T17:33:18.641Z,16.63
2023-01-29T17:34:40.100Z,16.04
2023-01-29T17:36:01.437Z,16.13
2023-01-29T17:37:22.897Z,18.41
2023-01-29T17:38:44.683Z,17.56
2023-01-29T17:40:31.008Z,12.73
2023-01-29T17:43:04.608Z,18.28
2023-01-29T17:44:25.827Z,14.25
2023-01-29T17:45:47.230Z,15.92
2023-01-29T17:47:12.563Z,14.87
2023-01-29T17:48:33.875Z,14.39
2023-01-29T17:49:55.512Z,15.79
2023-01-29T17:51:17.192Z,14.90
2023-01-29T17:52:38.334Z,16.32
2023-01-29T17:53:59.519Z,18.76
2023-01-29T17:55:21.795Z,17.08
2023-01-29T17:56:43.231Z,17.73
2023-01-29T17:58:04.526Z,15.17
2023-01-29T17:59:30.817Z,14.70
2023-01-29T18:00:53.340Z,14.56
2023-01-29T18:02:28.918Z,15.50
2023-01-29T18:04:58.882Z,15.69
2023-01-29T18:06:28.366Z,16.90
2023-01-29T18:07:49.448Z,14.81
2023-01-29T18:09:18.336Z,14.13
2023-01-29T18:10:39.720Z,15.46
2023-01-29T18:12:00.986Z,15.52
2023-01-29T18:13:22.491Z,17.10
2023-01-29T18:14:44.026Z,14.03
2023-01-29T18:16:06.241Z,15.89
2023-01-29T18:17:27.897Z,16.35
2023-01-29T18:18:49.743Z,15.80
2023-01-29T18:20:22.226Z,16.20
2023-01-29T18:21:43.950Z,15.62
2023-01-29T18:23:06.065Z,19.32
2023-01-29T18:24:27.522Z,17.02
2023-01-29T18:25:49.005Z,17.44
2023-01-29T18:27:10.480Z,18.66
2023-01-29T18:28:31.629Z,18.77
2023-01-29T18:29:53.151Z,15.42
2023-01-29T18:31:14.593Z,14.89
2023-01-29T18:32:36.558Z,14.31
2023-01-29T18:33:57.684Z,15.93
2023-01-29T18:35:19.737Z,17.76
2023-01-29T18:36:41.143Z,16.27
2023-01-29T18:38:02.733Z,15.51
2023-01-29T18:39:24.028Z,15.92
2023-01-29T18:40:45.651Z,15.83
2023-01-29T18:42:06.866Z,18.61
2023-01-29T18:43:28.323Z,17.92
2023-01-29T18:44:49.799Z,15.55
2023-01-29T18:46:11.574Z,16.38
2023-01-29T18:47:33.213Z,15.27
2023-01-29T18:48:54.698Z,16.46
2023-01-29T18:50:16.426Z,16.56
2023-01-29T18:51:37.719Z,19.21
2023-01-29T18:52:59.313Z,15.02
2023-01-29T18:54:20.623Z,14.87
2023-01-29T18:55:42.490Z,15.75
2023-01-29T18:57:13.031Z,16.52
2023-01-29T18:58:34.748Z,18.41
2023-01-29T19:02:23.336Z,14.59
2023-01-29T19:03:44.701Z,15.27
2023-01-29T19:05:06.434Z,15.91
2023-01-29T19:06:28.339Z,16.86
2023-01-29T19:07:49.823Z,16.95
2023-01-29T19:09:10.914Z,15.44
2023-01-29T19:10:32.498Z,17.11
2023-01-29T19:11:53.918Z,18.78
2023-01-29T19:13:14.963Z,14.37
2023-01-29T19:14:38.475Z,17.89
2023-01-29T19:15:59.721Z,15.32
2023-01-29T19:17:21.030Z,16.33
2023-01-29T19:18:42.393Z,14.91
2023-01-29T19:20:04.064Z,14.16
2023-01-29T19:21:25.376Z,14.07
2023-01-29T19:22:46.826Z,14.54
2023-01-29T19:24:08.505Z,15.58
2023-01-29T19:25:30.065Z,13.01
2023-01-29T19:26:51.787Z,13.27
2023-01-29T19:28:13.592Z,11.13
2023-01-29T19:29:35.040Z,11.17
2023-01-29T19:30:57.416Z,11.87
2023-01-29T19:32:19.637Z,10.01
2023-01-29T19:33:40.967Z,9.94
2023-01-29T19:35:02.232Z,9.28
2023-01-29T19:36:24.604Z,11.30
2023-01-29T19:37:45.962Z,11.24
2023-01-29T19:39:07.675Z,10.62
2023-01-29T19:40:29.224Z,10.84
2023-01-29T19:41:50.585Z,11.03
2023-01-29T19:43:11.927Z,11.89
2023-01-29T19:44:33.468Z,10.96
2023-01-29T19:45:57.062Z,13.81
2023-01-29T19:47:18.867Z,11.46
2023-01-29T19:48:40.476Z,10.23
2023-01-29T19:50:02.040Z,11.42
2023-01-29T19:51:23.549Z,12.48
2023-01-29T19:52:52.140Z,10.88
2023-01-29T19:54:08.423Z,9.87
2023-01-29T19:55:30.919Z,11.78
2023-01-29T19:56:53.649Z,10.62
2023-01-29T19:58:14.874Z,9.63
2023-01-29T19:59:36.199Z,11.29
2023-01-29T20:00:59.316Z,12.16
2023-01-29T20:02:20.762Z,10.27
2023-01-29T20:03:42.026Z,12.58
2023-01-29T20:05:04.897Z,12.24
2023-01-29T20:06:27.291Z,12.38
2023-01-29T20:07:48.680Z,13.49
2023-01-29T20:09:10.251Z,13.74
2023-01-29T20:10:31.897Z,13.47
2023-01-29T20:11:53.306Z,14.77
2023-01-29T20:13:14.878Z,12.86
2023-01-29T20:14:36.242Z,11.52